Time;durP1;ratioP1;P1;durP2;ratioP2;P2;SDS_P1;SDS_P2;PMS_P1;PMS_P2;Temp;Humidity;BMP_temperature;BMP_pressure;BME280_temperature;BME280_humidity;BME280_pressure;Samples;Min_cycle;Max_cycle;Signal;HPM_P1;HPM_P2
2023/03/30 00:02:02;;;;;;;4.90;4.40;;;22.90;53.70;;;;;;222367;1263;24243;-56
2023/03/30 00:07:07;;;;;;;5.80;4.20;;;23.00;53.50;;;;;;222301;1263;24372;-51
2023/03/30 00:12:14;;;;;;;6.40;4.70;;;23.10;53.30;;;;;;222330;1263;22514;-50
2023/03/30 00:17:18;;;;;;;6.10;4.00;;;23.10;53.30;;;;;;222129;1254;22638;-52
2023/03/30 00:22:22;;;;;;;6.10;4.70;;;23.10;53.90;;;;;;225109;1266;22662;-53
2023/03/30 00:27:26;;;;;;;5.70;4.10;;;23.10;53.10;;;;;;228393;1264;22640;-53
2023/03/30 00:32:30;;;;;;;7.10;4.50;;;23.30;53.00;;;;;;223545;1255;22594;-50
2023/03/30 00:37:36;;;;;;;4.40;3.80;;;23.30;53.00;;;;;;222186;1263;22531;-53
2023/03/30 00:42:40;;;;;;;5.20;3.70;;;23.20;52.80;;;;;;222508;1248;24371;-56
2023/03/30 00:47:49;;;;;;;4.80;4.10;;;23.20;53.10;;;;;;222409;1254;22524;-56
2023/03/30 00:52:55;;;;;;;5.00;3.70;;;23.20;53.10;;;;;;222423;1254;22627;-58
2023/03/30 00:58:00;;;;;;;6.50;4.40;;;23.20;53.20;;;;;;222425;1254;26653;-51
2023/03/30 01:03:13;;;;;;;4.70;3.50;;;23.30;52.80;;;;;;222295;1254;24323;-50
2023/03/30 01:08:18;;;;;;;4.70;3.80;;;23.30;52.90;;;;;;222515;1254;24183;-50
2023/03/30 01:13:23;;;;;;;4.50;3.80;;;23.30;53.00;;;;;;222469;1262;22531;-52
2023/03/30 01:18:38;;;;;;;6.00;3.70;;;23.20;53.50;;;;;;222188;1257;22637;-50
2023/03/30 01:24:16;;;;;;;6.80;3.60;;;23.10;53.20;;;;;;222428;1264;22518;-55
2023/03/30 01:29:43;;;;;;;5.70;3.90;;;23.00;54.00;;;;;;222306;1260;24226;-52
2023/03/30 01:34:58;;;;;;;3.80;3.40;;;23.00;53.50;;;;;;222375;1254;25323;-62
2023/03/30 01:40:13;;;;;;;3.60;3.30;;;22.90;53.50;;;;;;222129;1254;22518;-52
2023/03/30 01:45:32;;;;;;;4.90;3.60;;;22.80;53.80;;;;;;222313;1254;22651;-57
2023/03/30 01:50:41;;;;;;;3.70;3.40;;;22.90;53.60;;;;;;222513;1254;24256;-52
2023/03/30 01:56:01;;;;;;;3.70;3.30;;;22.80;53.60;;;;;;222424;1260;22512;-55
2023/03/30 02:01:06;;;;;;;4.40;3.20;;;22.80;53.90;;;;;;222589;1253;22587;-51
2023/03/30 02:06:37;;;;;;;4.20;3.50;;;22.70;54.10;;;;;;222280;1264;22507;-58
2023/03/30 02:11:45;;;;;;;4.40;3.30;;;22.60;54.50;;;;;;222381;1264;22538;-49
2023/03/30 02:16:55;;;;;;;3.90;3.50;;;22.50;54.40;;;;;;230365;1264;22179;-51
2023/03/30 02:22:00;;;;;;;4.80;3.50;;;22.60;54.40;;;;;;221866;1258;23903;-53
2023/03/30 02:27:06;;;;;;;3.70;3.30;;;22.50;53.90;;;;;;226013;1259;22592;-55
2023/03/30 02:32:35;;;;;;;3.00;2.70;;;22.50;54.60;;;;;;222196;1263;22660;-53
2023/03/30 02:38:13;;;;;;;3.90;3.50;;;22.40;54.40;;;;;;222435;1254;24245;-51
2023/03/30 02:43:29;;;;;;;3.30;3.00;;;22.40;54.50;;;;;;222246;1254;25624;-54
2023/03/30 02:48:55;;;;;;;3.90;3.20;;;22.30;55.10;;;;;;222190;1256;22517;-52
2023/03/30 02:54:16;;;;;;;3.80;3.40;;;22.20;55.50;;;;;;222526;1255;22528;-55
2023/03/30 03:00:11;;;;;;;4.00;3.00;;;22.10;54.90;;;;;;222393;1262;22529;-52
2023/03/30 03:05:16;;;;;;;3.00;2.70;;;22.10;54.90;;;;;;222598;1262;22514;-49
2023/03/30 03:10:41;;;;;;;3.10;2.80;;;22.10;54.80;;;;;;222289;1254;22515;-55
2023/03/30 03:15:48;;;;;;;3.20;2.90;;;22.10;55.00;;;;;;222483;1254;22659;-52
2023/03/30 03:20:52;;;;;;;3.30;3.00;;;22.00;55.10;;;;;;222351;1254;22518;-52
2023/03/30 03:25:59;;;;;;;3.20;2.90;;;22.00;55.10;;;;;;222411;1254;22511;-52
2023/03/30 03:31:04;;;;;;;3.50;3.20;;;22.00;55.20;;;;;;222241;1254;25457;-56
2023/03/30 03:36:10;;;;;;;4.90;3.10;;;21.90;55.30;;;;;;222377;1263;22533;-52
2023/03/30 03:41:22;;;;;;;3.70;3.30;;;21.90;55.10;;;;;;222287;1262;22563;-50
2023/03/30 03:46:26;;;;;;;3.20;2.90;;;21.90;55.30;;;;;;222370;1263;25217;-54
2023/03/30 03:51:31;;;;;;;3.30;2.90;;;21.90;55.40;;;;;;222367;1256;24345;-53
2023/03/30 03:56:35;;;;;;;4.00;2.90;;;21.80;55.30;;;;;;222312;1254;22682;-54
2023/03/30 04:01:39;;;;;;;3.40;3.00;;;21.80;55.30;;;;;;222165;1262;24062;-49
2023/03/30 04:06:44;;;;;;;3.80;3.00;;;22.10;55.70;;;;;;222582;1262;22517;-55
2023/03/30 04:11:48;;;;;;;3.50;2.90;;;22.30;54.90;;;;;;222383;1253;22521;-50
2023/03/30 04:17:10;;;;;;;3.20;2.60;;;22.40;54.80;;;;;;222342;1260;22638;-51
2023/03/30 04:22:25;;;;;;;3.20;2.90;;;22.70;54.20;;;;;;222464;1261;22507;-52
2023/03/30 04:27:56;;;;;;;2.60;2.40;;;23.00;53.30;;;;;;222509;1254;22535;-52
2023/03/30 04:33:36;;;;;;;2.90;2.50;;;23.00;53.00;;;;;;222530;1262;22515;-56
2023/03/30 04:38:57;;;;;;;3.30;2.50;;;23.10;52.80;;;;;;222397;1253;22508;-61
2023/03/30 04:44:21;;;;;;;3.70;2.80;;;23.10;53.50;;;;;;222599;1254;23959;-60
2023/03/30 04:49:47;;;;;;;2.80;2.60;;;23.10;52.80;;;;;;222693;1254;22532;-55
2023/03/30 04:55:14;;;;;;;2.70;2.50;;;23.10;52.80;;;;;;222352;1261;22523;-58
2023/03/30 05:00:28;;;;;;;3.00;2.60;;;23.10;52.80;;;;;;222465;1253;22510;-59
2023/03/30 05:05:52;;;;;;;2.70;2.50;;;23.20;52.80;;;;;;222204;1262;23005;-61
2023/03/30 05:11:20;;;;;;;2.60;2.40;;;23.30;52.70;;;;;;222247;1256;24052;-60
2023/03/30 05:16:36;;;;;;;2.30;2.10;;;23.30;52.60;;;;;;222359;1253;22583;-58
2023/03/30 05:22:00;;;;;;;2.60;2.30;;;23.40;52.50;;;;;;222541;1255;22520;-59
2023/03/30 05:27:39;;;;;;;2.40;2.10;;;23.40;52.30;;;;;;221651;1264;22638;-59
2023/03/30 05:33:01;;;;;;;3.90;2.60;;;23.40;52.60;;;;;;222447;1255;22633;-58
2023/03/30 05:38:20;;;;;;;2.70;2.50;;;23.40;52.60;;;;;;222508;1260;22666;-56
2023/03/30 05:43:53;;;;;;;2.80;2.60;;;23.40;53.00;;;;;;221887;1262;22508;-56
2023/03/30 05:49:16;;;;;;;16.20;2.60;;;23.20;53.20;;;;;;222586;1246;24200;-52
2023/03/30 05:54:46;;;;;;;5.00;2.40;;;23.10;53.60;;;;;;222584;1260;22512;-54
2023/03/30 06:00:09;;;;;;;2.80;2.60;;;23.00;54.30;;;;;;222525;1256;24193;-50
2023/03/30 06:05:20;;;;;;;3.60;2.20;;;23.00;54.60;;;;;;222418;1260;22637;-54
2023/03/30 06:10:25;;;;;;;5.20;2.40;;;23.00;54.60;;;;;;222706;1262;26516;-49
2023/03/30 06:15:30;;;;;;;2.50;2.00;;;23.00;55.40;;;;;;222567;1262;22515;-50
2023/03/30 06:20:41;;;;;;;4.70;2.10;;;22.80;55.90;;;;;;222273;1255;22523;-52
2023/03/30 06:25:51;;;;;;;3.20;2.10;;;22.80;55.70;;;;;;222292;1256;126048;-54
2023/03/30 06:31:01;;;;;;;3.20;2.40;;;22.80;56.00;;;;;;222381;1262;22503;-50
2023/03/30 06:36:11;;;;;;;3.80;2.20;;;22.70;55.30;;;;;;222746;1262;22521;-60
2023/03/30 06:41:16;;;;;;;7.70;2.40;;;22.70;55.80;;;;;;222370;1254;22639;-51
2023/03/30 06:46:21;;;;;;;6.60;2.30;;;22.70;55.50;;;;;;222595;1257;24197;-58
2023/03/30 06:51:26;;;;;;;6.50;2.60;;;22.70;55.50;;;;;;222786;1262;22528;-48
2023/03/30 06:56:31;;;;;;;2.30;2.10;;;22.70;55.50;;;;;;222356;1265;22686;-51
2023/03/30 07:01:46;;;;;;;3.80;2.40;;;22.50;55.80;;;;;;222637;1262;22633;-51
2023/03/30 07:07:26;;;;;;;4.60;2.00;;;22.40;55.40;;;;;;221751;1269;24336;-49
2023/03/30 07:12:30;;;;;;;5.60;2.40;;;22.40;55.40;;;;;;222366;1263;23748;-51
2023/03/30 07:17:35;;;;;;;5.50;2.20;;;22.30;55.50;;;;;;222806;1263;22636;-49
2023/03/30 07:22:41;;;;;;;3.40;2.00;;;22.30;55.40;;;;;;222799;1253;24340;-52
2023/03/30 07:27:46;;;;;;;6.70;2.00;;;22.20;55.30;;;;;;222755;1265;24279;-50
2023/03/30 07:32:51;;;;;;;3.60;2.30;;;22.30;55.40;;;;;;222782;1260;22514;-50
2023/03/30 07:37:57;;;;;;;3.00;2.50;;;22.20;55.60;;;;;;222404;1261;24010;-45
2023/03/30 07:43:10;;;;;;;5.50;2.40;;;22.20;55.00;;;;;;222659;1254;22507;-54
2023/03/30 07:48:15;;;;;;;5.20;2.10;;;22.20;55.60;;;;;;222770;1263;22517;-50
2023/03/30 07:53:21;;;;;;;2.40;2.20;;;22.20;54.60;;;;;;222297;1254;22502;-45
2023/03/30 07:58:27;;;;;;;5.50;2.40;;;22.10;54.80;;;;;;222791;1253;24049;-47
2023/03/30 08:03:32;;;;;;;2.00;1.90;;;22.10;55.10;;;;;;222776;1246;22505;-46
2023/03/30 08:08:39;;;;;;;8.40;1.90;;;22.10;55.10;;;;;;222399;1262;22511;-50
2023/03/30 08:13:44;;;;;;;5.80;2.10;;;22.20;55.30;;;;;;222354;1256;25518;-50
2023/03/30 08:18:48;;;;;;;2.90;1.80;;;22.20;55.10;;;;;;222392;1245;24177;-51
2023/03/30 08:23:54;;;;;;;4.00;2.20;;;22.30;54.90;;;;;;222240;1262;24053;-48
2023/03/30 08:28:59;;;;;;;4.40;2.10;;;22.30;54.70;;;;;;222379;1254;22516;-45
2023/03/30 08:34:03;;;;;;;2.90;2.10;;;22.30;55.20;;;;;;222337;1254;22514;-50
2023/03/30 08:39:07;;;;;;;10.30;2.10;;;22.30;54.80;;;;;;222174;1260;22720;-47
2023/03/30 08:44:33;;;;;;;4.50;2.00;;;22.30;55.10;;;;;;222422;1256;24217;-50
2023/03/30 08:49:55;;;;;;;5.20;2.30;;;22.30;54.90;;;;;;222339;1260;22625;-53
2023/03/30 08:54:58;;;;;;;;;;;22.30;56.50;;;;;;222443;1263;22490;-56
2023/03/30 09:00:36;;;;;;;3.90;2.00;;;22.40;55.60;;;;;;222368;1263;22763;-58
2023/03/30 09:05:50;;;;;;;7.00;2.30;;;22.40;56.10;;;;;;222272;1262;22571;-57
2023/03/30 09:10:59;;;;;;;15.00;3.20;;;22.40;55.70;;;;;;222266;1255;22527;-53
2023/03/30 09:16:46;;;;;;;3.60;2.00;;;22.40;55.30;;;;;;221900;1264;24394;-53
2023/03/30 09:21:52;;;;;;;14.20;2.80;;;22.20;55.70;;;;;;222285;1261;22520;-58
2023/03/30 09:27:07;;;;;;;135.80;55.50;;;22.10;56.30;;;;;;222507;1262;25348;-54
2023/03/30 09:32:13;;;;;;;81.40;37.10;;;22.10;55.80;;;;;;222383;1253;24372;-54
2023/03/30 09:37:17;;;;;;;59.80;25.90;;;22.10;56.20;;;;;;222399;1262;23607;-54
2023/03/30 09:43:00;;;;;;;62.70;24.60;;;22.20;56.40;;;;;;222246;1254;24187;-56
2023/03/30 09:48:07;;;;;;;45.10;21.20;;;22.10;56.20;;;;;;222135;1256;22504;-55
2023/03/30 09:53:25;;;;;;;52.10;22.00;;;22.10;56.40;;;;;;222369;1255;22529;-51
2023/03/30 09:58:33;;;;;;;46.70;21.40;;;22.20;56.60;;;;;;222446;1261;24240;-55
2023/03/30 10:03:39;;;;;;;38.40;19.10;;;22.20;56.60;;;;;;222345;1248;22515;-48
2023/03/30 10:08:55;;;;;;;33.70;18.70;;;22.20;56.40;;;;;;222398;1256;23031;-52
2023/03/30 10:13:59;;;;;;;32.10;16.70;;;22.30;56.60;;;;;;222178;1263;25362;-57
2023/03/30 10:19:16;;;;;;;34.60;17.40;;;22.30;56.80;;;;;;222346;1262;22483;-57
2023/03/30 10:24:23;;;;;;;36.00;16.80;;;22.30;56.70;;;;;;222299;1256;25423;-57
2023/03/30 10:29:28;;;;;;;32.40;16.20;;;22.30;56.60;;;;;;222427;1260;22514;-54
2023/03/30 10:34:37;;;;;;;29.80;15.10;;;22.50;56.50;;;;;;222246;1256;22630;-53
2023/03/30 10:39:45;;;;;;;32.40;15.40;;;22.50;55.90;;;;;;222407;1262;22756;-53
2023/03/30 10:44:54;;;;;;;28.60;15.30;;;22.60;55.80;;;;;;222431;1265;24173;-53
2023/03/30 10:50:07;;;;;;;32.00;14.40;;;22.50;55.90;;;;;;222174;1253;22510;-54
2023/03/30 10:55:27;;;;;;;29.80;13.50;;;22.60;56.40;;;;;;222307;1256;23062;-54
2023/03/30 11:00:47;;;;;;;31.10;15.50;;;22.50;56.10;;;;;;222254;1256;24190;-52
2023/03/30 11:05:55;;;;;;;25.80;14.20;;;22.50;56.70;;;;;;222438;1265;23946;-54
2023/03/30 11:11:00;;;;;;;27.00;13.40;;;22.60;57.50;;;;;;222364;1262;22595;-57
2023/03/30 11:16:10;;;;;;;27.10;13.30;;;22.60;58.00;;;;;;222357;1265;23935;-57
2023/03/30 11:21:16;;;;;;;24.90;13.60;;;22.60;57.70;;;;;;222447;1262;24356;-53
2023/03/30 11:26:50;;;;;;;23.90;12.40;;;22.60;58.00;;;;;;222424;1254;22532;-49
2023/03/30 11:32:15;;;;;;;22.30;13.00;;;22.60;58.50;;;;;;222398;1255;22981;-54
2023/03/30 11:37:34;;;;;;;26.50;12.50;;;22.50;59.10;;;;;;222414;1253;23908;-51
2023/03/30 11:42:38;;;;;;;24.60;12.70;;;22.60;58.60;;;;;;222423;1249;22583;-50
2023/03/30 11:48:07;;;;;;;25.50;12.30;;;22.60;59.10;;;;;;222396;1262;24242;-54
2023/03/30 11:53:23;;;;;;;25.20;11.40;;;22.60;59.80;;;;;;222291;1262;25489;-57
2023/03/30 11:58:47;;;;;;;21.90;11.80;;;22.50;60.00;;;;;;222290;1255;22868;-56
2023/03/30 12:04:09;;;;;;;24.80;11.50;;;22.50;60.00;;;;;;222153;1263;22537;-55
2023/03/30 12:09:36;;;;;;;20.10;12.20;;;22.40;60.30;;;;;;222372;1254;22622;-54
2023/03/30 12:14:59;;;;;;;19.30;11.20;;;22.50;60.50;;;;;;222407;1263;22801;-59
2023/03/30 12:20:32;;;;;;;19.00;11.00;;;22.50;61.30;;;;;;222384;1269;24187;-53
2023/03/30 12:25:59;;;;;;;26.60;11.10;;;22.40;61.10;;;;;;222260;1265;22521;-59
2023/03/30 12:31:04;;;;;;;20.00;11.50;;;22.40;61.30;;;;;;222475;1262;24184;-56
2023/03/30 12:36:25;;;;;;;20.30;10.90;;;22.40;61.50;;;;;;222508;1261;22626;-57
2023/03/30 12:41:40;;;;;;;17.50;9.90;;;22.40;61.20;;;;;;222204;1259;22521;-51
2023/03/30 12:47:23;;;;;;;17.10;9.40;;;22.40;62.10;;;;;;222416;1261;25320;-51
2023/03/30 12:53:00;;;;;;;17.80;10.40;;;22.40;61.70;;;;;;221670;1262;22556;-53
2023/03/30 12:58:06;;;;;;;17.50;9.20;;;22.40;62.40;;;;;;222349;1265;24212;-53
2023/03/30 13:03:19;;;;;;;18.30;10.30;;;22.30;62.10;;;;;;222415;1264;22511;-55
2023/03/30 13:08:39;;;;;;;15.20;9.40;;;22.30;62.60;;;;;;222189;1260;23886;-52
2023/03/30 13:13:51;;;;;;;17.80;9.60;;;22.30;62.20;;;;;;222425;1256;25320;-60
2023/03/30 13:18:55;;;;;;;17.40;9.90;;;22.30;62.30;;;;;;222554;1260;22513;-54
2023/03/30 13:24:25;;;;;;;18.90;8.60;;;22.30;62.00;;;;;;222102;1253;22535;-53
2023/03/30 13:29:30;;;;;;;16.90;9.20;;;22.40;62.10;;;;;;222411;1262;24246;-58
2023/03/30 13:34:40;;;;;;;20.10;10.90;;;22.30;62.50;;;;;;222130;1258;22526;-57
2023/03/30 13:40:03;;;;;;;14.90;8.10;;;22.30;62.80;;;;;;222416;1262;23834;-53
2023/03/30 13:45:31;;;;;;;14.30;8.30;;;22.30;63.00;;;;;;222283;1262;24206;-53
2023/03/30 13:50:37;;;;;;;11.90;7.90;;;22.30;62.80;;;;;;222345;1256;24335;-55
2023/03/30 13:55:49;;;;;;;15.60;8.90;;;22.40;62.60;;;;;;222542;1256;22528;-55
2023/03/30 14:01:00;;;;;;;13.60;8.20;;;22.40;62.80;;;;;;222279;1263;22653;-55
2023/03/30 14:06:16;;;;;;;15.30;7.80;;;22.40;62.30;;;;;;222448;1262;25215;-52
2023/03/30 14:11:25;;;;;;;12.00;7.80;;;22.30;62.50;;;;;;222166;1262;25249;-52
2023/03/30 14:16:37;;;;;;;12.50;7.80;;;22.20;62.50;;;;;;222529;1261;23196;-52
2023/03/30 14:21:44;;;;;;;17.40;7.70;;;22.30;62.10;;;;;;223586;1261;22837;-51
2023/03/30 14:26:49;;;;;;;9.40;6.50;;;22.30;62.40;;;;;;222447;1262;22559;-52
2023/03/30 14:31:53;;;;;;;13.70;7.90;;;22.40;62.00;;;;;;222322;1263;24187;-52
2023/03/30 14:37:11;;;;;;;11.00;6.90;;;22.40;61.30;;;;;;222326;1263;22523;-53
2023/03/30 14:42:19;;;;;;;9.50;6.50;;;22.40;61.10;;;;;;222161;1262;24215;-55
2023/03/30 14:47:26;;;;;;;13.40;6.60;;;22.30;61.20;;;;;;222285;1265;22517;-52
2023/03/30 14:52:36;;;;;;;11.70;6.50;;;22.20;61.80;;;;;;222319;1261;25321;-54
2023/03/30 14:57:42;;;;;;;11.00;6.40;;;22.10;62.60;;;;;;222179;1264;24206;-52
2023/03/30 15:02:53;;;;;;;10.60;6.20;;;22.10;62.30;;;;;;222002;1265;24357;-51
2023/03/30 15:07:57;;;;;;;11.90;6.40;;;22.10;62.60;;;;;;222135;1263;24390;-51
2023/03/30 15:13:03;;;;;;;8.60;6.10;;;22.30;61.50;;;;;;222300;1263;22514;-54
2023/03/30 15:18:08;;;;;;;9.50;5.90;;;22.20;61.50;;;;;;222240;1262;23908;-53
2023/03/30 15:23:13;;;;;;;13.70;5.60;;;22.20;61.80;;;;;;222254;1254;22507;-58
2023/03/30 15:28:19;;;;;;;11.30;5.80;;;22.10;62.80;;;;;;222472;1262;24400;-56
2023/03/30 15:33:38;;;;;;;9.50;5.60;;;22.10;62.20;;;;;;222218;1261;25580;-58
2023/03/30 15:38:50;;;;;;;11.60;5.90;;;22.10;62.10;;;;;;222429;1266;22515;-54
2023/03/30 15:43:57;;;;;;;9.40;6.20;;;22.10;64.40;;;;;;222446;1261;23890;-59
2023/03/30 15:49:02;;;;;;;8.90;5.00;;;22.10;65.10;;;;;;222315;1269;23897;-57
2023/03/30 15:54:16;;;;;;;13.60;5.80;;;22.30;64.20;;;;;;222455;1256;24175;-58
2023/03/30 15:59:27;;;;;;;10.20;5.60;;;22.20;66.60;;;;;;222559;1258;25376;-46
2023/03/30 16:04:31;;;;;;;10.00;5.10;;;22.30;66.60;;;;;;222668;1255;25303;-48
2023/03/30 16:09:37;;;;;;;7.70;4.80;;;22.20;65.90;;;;;;222710;1264;22534;-51
2023/03/30 16:14:42;;;;;;;13.20;7.50;;;22.20;65.90;;;;;;222872;1264;24940;-45
2023/03/30 16:19:51;;;;;;;58.30;26.20;;;22.10;65.80;;;;;;222869;1263;23458;-45
2023/03/30 16:25:00;;;;;;;113.00;43.50;;;22.10;64.90;;;;;;223235;1263;24158;-46
2023/03/30 16:31:02;;;;;;;72.20;32.80;;;22.10;64.60;;;;;;223399;1264;22588;-46
2023/03/30 16:36:18;;;;;;;83.50;36.20;;;22.20;64.30;;;;;;223374;1266;22517;-46
2023/03/30 16:41:23;;;;;;;73.60;32.70;;;22.10;64.20;;;;;;223480;1269;22623;-46
2023/03/30 16:46:32;;;;;;;68.40;30.70;;;22.10;63.70;;;;;;223243;1263;25889;-47
2023/03/30 16:51:41;;;;;;;65.70;33.40;;;22.20;63.60;;;;;;223431;1269;22688;-42
2023/03/30 16:56:49;;;;;;;53.20;27.10;;;22.20;63.30;;;;;;222870;1269;22640;-45
2023/03/30 17:01:56;;;;;;;52.80;27.10;;;22.20;63.10;;;;;;222663;1269;23917;-47
2023/03/30 17:07:00;;;;;;;51.60;26.10;;;22.10;62.90;;;;;;223475;1265;22526;-45
2023/03/30 17:12:05;;;;;;;50.40;26.50;;;22.20;63.20;;;;;;223536;1262;25390;-47
2023/03/30 17:17:11;;;;;;;50.50;24.20;;;22.30;62.60;;;;;;223322;1269;22510;-47
2023/03/30 17:22:15;;;;;;;50.40;22.10;;;22.20;62.80;;;;;;222883;1264;24207;-43
2023/03/30 17:27:20;;;;;;;48.80;24.60;;;22.20;62.60;;;;;;222427;1269;23015;-44
2023/03/30 18:37:02;;;;;;;21.50;12.80;;;22.20;60.80;;;;;;222684;1266;22660;-48
2023/03/30 18:42:07;;;;;;;20.50;12.50;;;21.90;60.40;;;;;;222465;1266;22516;-44
2023/03/30 18:47:14;;;;;;;29.00;13.50;;;21.90;60.30;;;;;;222154;1261;22654;-45
2023/03/30 18:52:20;;;;;;;21.10;13.00;;;21.90;61.80;;;;;;222324;1269;22611;-52
2023/03/30 18:57:27;;;;;;;23.60;12.10;;;21.90;62.90;;;;;;222468;1262;22595;-49
2023/03/30 19:02:35;;;;;;;23.00;12.10;;;21.90;63.80;;;;;;222527;1263;23512;-47
2023/03/30 19:07:42;;;;;;;26.20;12.50;;;21.90;65.10;;;;;;222550;1269;22515;-45
2023/03/30 19:12:52;;;;;;;51.60;14.80;;;21.90;68.30;;;;;;222525;1267;22546;-47
2023/03/30 19:17:58;;;;;;;22.80;12.80;;;22.00;71.10;;;;;;222252;1269;22595;-46
2023/03/30 19:23:10;;;;;;;;;;;22.10;69.70;;;;;;222542;1264;24329;-47
2023/03/30 19:28:19;;;;;;;19.10;11.90;;;22.10;68.20;;;;;;222599;1269;22531;-46
2023/03/30 19:33:25;;;;;;;21.50;11.40;;;22.10;67.60;;;;;;222621;1245;23924;-46
2023/03/30 19:38:32;;;;;;;18.40;11.70;;;22.20;66.70;;;;;;222260;1269;22605;-49
2023/03/30 19:43:38;;;;;;;19.90;11.60;;;22.10;66.30;;;;;;222254;1269;22530;-44
2023/03/30 19:48:44;;;;;;;17.40;10.10;;;22.00;66.40;;;;;;222489;1247;22548;-46
2023/03/30 19:53:51;;;;;;;17.20;9.80;;;22.00;65.70;;;;;;222623;1264;24396;-46
2023/03/30 19:58:57;;;;;;;18.60;9.90;;;21.90;65.80;;;;;;222597;1264;22593;-49
2023/03/30 20:04:04;;;;;;;17.60;9.30;;;21.90;65.30;;;;;;222660;1264;25344;-50
2023/03/30 20:09:12;;;;;;;15.50;10.30;;;21.90;65.20;;;;;;222699;1263;25275;-50
2023/03/30 20:14:19;;;;;;;18.40;9.40;;;21.80;65.20;;;;;;222681;1252;24189;-49
2023/03/30 20:19:24;;;;;;;15.60;8.90;;;21.80;64.90;;;;;;222470;1264;24946;-45
2023/03/30 20:24:33;;;;;;;15.00;9.50;;;21.90;65.00;;;;;;222401;1260;26528;-48
2023/03/30 20:29:37;;;;;;;15.70;9.00;;;22.00;64.10;;;;;;222798;1266;22527;-45
2023/03/30 20:34:44;;;;;;;15.50;8.60;;;22.10;64.40;;;;;;222764;1265;23918;-46
2023/03/30 20:39:49;;;;;;;17.20;8.60;;;22.00;63.50;;;;;;222698;1264;22929;-45
2023/03/30 20:44:54;;;;;;;15.70;8.90;;;21.90;64.30;;;;;;222785;1264;22542;-48
2023/03/30 20:49:58;;;;;;;17.00;8.50;;;21.90;64.00;;;;;;222753;1264;22655;-50
2023/03/30 20:55:03;;;;;;;17.90;9.30;;;21.90;63.80;;;;;;222794;1264;25333;-44
2023/03/30 21:00:08;;;;;;;18.50;8.70;;;21.90;63.30;;;;;;222896;1262;25305;-46
2023/03/30 21:05:12;;;;;;;25.00;10.20;;;21.90;63.20;;;;;;221095;1261;23899;-44
2023/03/30 21:10:16;;;;;;;20.80;9.00;;;22.00;67.60;;;;;;220935;1270;23936;-44
2023/03/30 21:15:20;;;;;;;19.50;9.90;;;22.10;67.50;;;;;;221098;1270;22486;-45
2023/03/30 21:20:24;;;;;;;23.10;9.60;;;22.00;67.40;;;;;;221025;1269;22570;-44
2023/03/30 21:25:29;;;;;;;20.20;9.20;;;21.90;67.30;;;;;;222831;1254;22680;-45
2023/03/30 21:30:34;;;;;;;18.00;8.80;;;21.80;67.40;;;;;;222774;1255;22700;-47
2023/03/30 21:35:38;;;;;;;17.70;8.90;;;21.70;67.60;;;;;;222360;1264;22656;-44
2023/03/30 21:41:03;;;;;;;20.30;9.20;;;21.70;66.90;;;;;;222719;1254;24146;-45
2023/03/30 21:46:14;;;;;;;17.20;9.30;;;21.80;70.30;;;;;;222611;1262;22532;-47
2023/03/30 21:51:21;;;;;;;15.30;8.10;;;21.80;70.70;;;;;;222434;1264;22763;-45
2023/03/30 21:56:27;;;;;;;19.60;9.30;;;21.90;69.20;;;;;;222854;1254;24260;-46
2023/03/30 22:01:32;;;;;;;16.30;8.70;;;21.90;68.50;;;;;;221556;1261;23884;-46
2023/03/30 22:06:36;;;;;;;14.40;8.10;;;22.00;67.80;;;;;;221459;1267;22514;-45
2023/03/30 22:11:40;;;;;;;15.70;7.60;;;21.80;68.40;;;;;;221509;1273;22534;-42
2023/03/30 22:16:45;;;;;;;20.80;9.40;;;21.60;68.00;;;;;;221490;1260;22527;-44
2023/03/30 22:21:50;;;;;;;14.20;8.10;;;21.80;67.60;;;;;;222584;1254;22633;-48
2023/03/30 22:26:54;;;;;;;17.00;8.20;;;21.80;68.30;;;;;;222822;1264;24186;-50
2023/03/30 22:31:58;;;;;;;14.30;8.10;;;21.70;67.90;;;;;;222188;1265;23930;-47
2023/03/30 22:37:02;;;;;;;14.40;7.60;;;21.80;67.80;;;;;;222396;1262;22521;-47
2023/03/30 22:42:07;;;;;;;11.30;7.30;;;21.80;67.70;;;;;;222472;1254;22519;-46
2023/03/30 22:47:11;;;;;;;27.00;7.60;;;21.80;66.70;;;;;;222590;1246;22540;-47
2023/03/30 22:52:15;;;;;;;12.90;7.00;;;21.80;66.60;;;;;;222470;1269;25567;-51
2023/03/30 22:57:20;;;;;;;12.20;7.70;;;21.80;66.30;;;;;;222529;1263;22654;-47
2023/03/30 23:02:24;;;;;;;11.50;6.90;;;21.80;66.10;;;;;;222496;1263;22564;-49
2023/03/30 23:07:30;;;;;;;19.50;6.90;;;21.80;66.20;;;;;;222249;1255;22463;-49
2023/03/30 23:12:34;;;;;;;12.10;6.50;;;21.70;66.50;;;;;;222537;1254;22724;-52
2023/03/30 23:17:38;;;;;;;11.30;6.40;;;21.90;66.20;;;;;;222525;1262;22515;-49
2023/03/30 23:22:43;;;;;;;11.10;6.10;;;22.30;64.80;;;;;;222548;1262;22525;-44
2023/03/30 23:27:47;;;;;;;9.80;5.60;;;22.40;64.20;;;;;;228085;1266;22540;-44
2023/03/30 23:32:51;;;;;;;8.80;5.70;;;22.70;64.20;;;;;;230371;1262;22400;-48
2023/03/30 23:37:55;;;;;;;8.40;5.60;;;22.90;62.80;;;;;;226396;1262;23868;-43
2023/03/30 23:42:59;;;;;;;8.10;5.30;;;23.00;62.40;;;;;;222716;1262;22510;-43
2023/03/30 23:48:04;;;;;;;10.10;5.50;;;23.00;62.40;;;;;;222653;1253;22601;-44
2023/03/30 23:53:08;;;;;;;8.70;6.10;;;23.00;62.80;;;;;;222992;1267;22528;-46
2023/03/30 23:58:12;;;;;;;7.60;4.90;;;23.00;62.40;;;;;;222662;1267;22523;-45
